Time;durP1;ratioP1;P1;durP2;ratioP2;P2;SDS_P1;SDS_P2;PMS_P1;PMS_P2;Temp;Humidity;BMP_temperature;BMP_pressure;BME280_temperature;BME280_humidity;BME280_pressure;Samples;Min_cycle;Max_cycle;Signal;HPM_P1;HPM_P2
2023/12/18 00:01:37;;;;;;;4.07;2.78;;;;;;;10.26;77.08;102579.72;5082632;27;97043;-74
2023/12/18 00:04:03;;;;;;;2.97;2.50;;;;;;;10.37;76.44;102574.38;5074637;27;96834;-73
2023/12/18 00:06:31;;;;;;;3.65;2.58;;;;;;;10.36;76.73;102572.63;5079152;27;99261;-74
2023/12/18 00:08:58;;;;;;;6.53;2.95;;;;;;;10.40;76.49;102569.06;5082927;27;99440;-74
2023/12/18 00:11:24;;;;;;;5.50;3.10;;;;;;;10.51;75.81;102571.63;5085589;27;97482;-75
2023/12/18 00:13:50;;;;;;;3.70;2.40;;;;;;;10.52;75.76;102568.09;5083085;27;96761;-75
2023/12/18 00:16:17;;;;;;;5.80;2.63;;;;;;;10.48;75.42;102566.38;5081492;27;99402;-74
2023/12/18 00:18:43;;;;;;;5.60;3.13;;;;;;;10.54;75.28;102561.94;5081049;27;97815;-75
2023/12/18 00:21:10;;;;;;;4.15;2.67;;;;;;;10.46;75.20;102560.22;5078315;27;97071;-75
2023/12/18 00:23:37;;;;;;;4.63;2.67;;;;;;;10.46;74.60;102554.94;5081300;27;97220;-73
2023/12/18 00:26:04;;;;;;;4.60;3.10;;;;;;;10.37;75.53;102542.69;5079037;27;99248;-75
2023/12/18 00:28:30;;;;;;;4.63;3.20;;;;;;;10.28;74.92;102553.28;5072712;27;99498;-75
2023/12/18 00:30:56;;;;;;;4.43;2.83;;;;;;;10.44;74.63;102549.66;5077495;27;97780;-75
2023/12/18 00:33:23;;;;;;;4.28;2.95;;;;;;;10.48;73.75;102550.53;5079368;27;96908;-74
2023/12/18 00:35:49;;;;;;;4.15;3.08;;;;;;;10.41;73.39;102544.41;5082781;27;101976;-74
2023/12/18 00:38:16;;;;;;;3.65;2.80;;;;;;;10.43;73.54;102539.13;5078334;27;99002;-75
2023/12/18 00:40:44;;;;;;;5.47;3.08;;;;;;;10.15;74.73;102535.72;5082747;27;96812;-74
2023/12/18 00:43:11;;;;;;;5.30;2.40;;;;;;;9.99;76.58;102529.63;5079295;27;100059;-75
2023/12/18 00:45:38;;;;;;;3.65;2.90;;;;;;;9.94;76.75;102521.72;5080028;27;98912;-74
2023/12/18 00:48:05;;;;;;;3.20;2.60;;;;;;;10.15;76.39;102527.78;5080913;27;102087;-74
2023/12/18 00:50:31;;;;;;;3.90;2.75;;;;;;;10.12;77.23;102523.38;5085630;27;97362;-74
2023/12/18 00:52:57;;;;;;;3.92;2.58;;;;;;;10.03;78.45;102522.56;5071649;27;97149;-74
2023/12/18 00:55:24;;;;;;;3.47;2.63;;;;;;;10.17;77.10;102532.22;5078560;27;102083;-74
2023/12/18 00:57:52;;;;;;;5.28;2.40;;;;;;;10.08;78.07;102537.50;5072151;27;101967;-74
2023/12/18 01:00:19;;;;;;;2.83;2.60;;;;;;;9.94;79.12;102536.69;5078943;27;97832;-74
2023/12/18 01:02:47;;;;;;;4.45;2.90;;;;;;;10.10;78.86;102532.22;5081738;27;97159;-74
2023/12/18 01:05:14;;;;;;;3.72;2.60;;;;;;;9.96;79.53;102529.66;5077229;27;96858;-74
2023/12/18 01:07:41;;;;;;;4.72;3.42;;;;;;;10.05;78.71;102526.06;5084662;27;98805;-74
2023/12/18 01:10:08;;;;;;;4.53;3.20;;;;;;;10.11;78.84;102519.00;5082628;27;96725;-74
2023/12/18 01:12:34;;;;;;;6.95;3.67;;;;;;;10.31;77.90;102510.97;5079741;27;97721;-74
2023/12/18 01:15:02;;;;;;;4.28;2.88;;;;;;;10.28;78.08;102517.19;5079878;27;99389;-74
2023/12/18 01:17:29;;;;;;;4.82;2.88;;;;;;;10.35;78.04;102515.38;5079287;27;102037;-74
2023/12/18 01:19:55;;;;;;;5.65;3.00;;;;;;;10.21;78.79;102510.19;5082300;27;97205;-73
2023/12/18 01:22:21;;;;;;;6.65;3.25;;;;;;;10.21;78.76;102507.53;5079945;27;96878;-73
2023/12/18 01:24:48;;;;;;;5.00;3.35;;;;;;;10.36;78.50;102506.56;5081756;27;99371;-73
2023/12/18 01:27:14;;;;;;;4.57;3.17;;;;;;;10.44;77.96;102503.84;5076285;27;99308;-73
2023/12/18 01:29:41;;;;;;;6.38;3.33;;;;;;;10.47;77.59;102515.28;5078651;27;97077;-73
2023/12/18 01:32:09;;;;;;;6.47;3.65;;;;;;;10.18;79.39;102510.19;5083447;27;96864;-73
2023/12/18 01:34:35;;;;;;;7.15;3.22;;;;;;;10.12;80.12;102504.91;5084854;27;97866;-72
2023/12/18 01:37:03;;;;;;;7.07;2.92;;;;;;;10.09;80.54;102501.41;5082209;27;101305;-73
2023/12/18 01:39:30;;;;;;;6.03;3.30;;;;;;;10.21;79.99;102506.66;5073717;27;96848;-74
2023/12/18 01:41:56;;;;;;;4.80;3.05;;;;;;;10.21;79.78;102509.28;5078849;27;97782;-73
2023/12/18 01:44:22;;;;;;;4.82;2.83;;;;;;;10.27;79.81;102509.25;5079129;27;98016;-75
2023/12/18 01:46:49;;;;;;;4.32;3.08;;;;;;;10.52;78.52;102508.19;5085449;27;99040;-73
2023/12/18 01:49:16;;;;;;;8.30;3.22;;;;;;;10.63;77.88;102505.50;5076232;27;96934;-73
2023/12/18 01:51:43;;;;;;;6.03;3.40;;;;;;;10.47;79.05;102507.34;5084294;27;97679;-74
2023/12/18 01:54:11;;;;;;;4.03;3.50;;;;;;;10.08;80.99;102513.75;5069837;27;99198;-73
2023/12/18 01:56:40;;;;;;;8.55;3.22;;;;;;;10.14;81.64;102515.47;5078855;27;97623;-75
2023/12/18 01:59:09;;;;;;;4.93;3.65;;;;;;;10.18;81.09;102504.91;5081291;27;96761;-74
2023/12/18 02:01:36;;;;;;;5.78;3.47;;;;;;;10.20;81.12;102505.78;5073912;27;96825;-74
2023/12/18 02:04:03;;;;;;;12.38;3.60;;;;;;;10.23;81.29;102504.88;5087215;27;97832;-74
2023/12/18 02:06:31;;;;;;;4.38;3.35;;;;;;;10.44;80.36;102512.66;5083386;27;98861;-74
2023/12/18 02:08:58;;;;;;;8.15;3.50;;;;;;;10.60;79.63;102518.72;5075022;27;96887;-74
2023/12/18 02:11:24;;;;;;;7.68;4.32;;;;;;;10.84;78.11;102509.69;5075361;27;97107;-75
2023/12/18 02:13:51;;;;;;;6.15;3.45;;;;;;;10.60;79.09;102501.09;5078574;27;99050;-75
2023/12/18 02:16:17;;;;;;;5.13;3.60;;;;;;;10.29;81.51;102513.66;5071783;27;98756;-74
2023/12/18 02:18:44;;;;;;;4.60;3.03;;;;;;;10.04;82.79;102506.72;5083768;27;96861;-74
2023/12/18 02:21:10;;;;;;;5.45;3.80;;;;;;;10.46;81.98;102508.25;5073064;27;96828;-74
2023/12/18 02:23:38;;;;;;;5.82;3.45;;;;;;;10.79;79.49;102510.63;5076150;27;99111;-73
2023/12/18 02:26:05;;;;;;;5.65;3.78;;;;;;;11.03;78.68;102506.88;5075375;27;98735;-74
2023/12/18 02:28:32;;;;;;;6.95;4.10;;;;;;;10.96;78.45;102505.16;5080728;27;97400;-74
2023/12/18 02:30:58;;;;;;;6.38;4.07;;;;;;;11.05;78.53;102496.28;5077011;27;96753;-74
2023/12/18 02:33:24;;;;;;;5.68;3.70;;;;;;;11.07;78.36;102492.75;5082921;27;99066;-74
2023/12/18 02:35:51;;;;;;;8.65;4.45;;;;;;;11.00;78.26;102488.41;5076187;27;99201;-74
2023/12/18 02:38:17;;;;;;;5.28;3.70;;;;;;;10.57;80.54;102493.16;5071936;27;97858;-74
2023/12/18 02:40:45;;;;;;;9.50;5.10;;;;;;;10.69;80.41;102498.38;5078811;27;97136;-74
2023/12/18 02:43:11;;;;;;;8.23;5.15;;;;;;;10.83;79.79;102490.31;5082603;27;102502;-74
2023/12/18 02:45:38;;;;;;;7.78;5.13;;;;;;;10.68;80.35;102496.63;5080422;27;98993;-74
2023/12/18 02:48:06;;;;;;;7.57;5.43;;;;;;;10.75;79.38;102493.03;5078652;27;97511;-74
2023/12/18 02:50:32;;;;;;;9.13;5.10;;;;;;;10.78;79.67;102490.34;5079074;27;96802;-74
2023/12/18 02:52:59;;;;;;;9.02;5.93;;;;;;;10.72;79.70;102495.69;5079577;27;98181;-74
2023/12/18 02:55:25;;;;;;;10.57;6.13;;;;;;;10.65;79.70;102488.72;5078466;27;99058;-74
2023/12/18 02:57:53;;;;;;;12.88;6.57;;;;;;;10.85;78.62;102485.00;5076268;27;97362;-74
2023/12/18 03:00:19;;;;;;;10.60;5.97;;;;;;;11.00;77.99;102482.22;5077364;27;96864;-74
2023/12/18 03:02:45;;;;;;;10.02;6.43;;;;;;;10.73;79.48;102484.25;5085063;27;99632;-74
2023/12/18 03:05:12;;;;;;;14.73;7.13;;;;;;;10.83;79.18;102476.22;5079556;27;99515;-74
2023/12/18 03:07:38;;;;;;;15.73;7.47;;;;;;;10.90;77.88;102485.84;5081339;27;97063;-73
2023/12/18 03:10:05;;;;;;;13.70;7.25;;;;;;;10.98;76.95;102479.59;5075685;27;96759;-74
2023/12/18 03:12:35;;;;;;;17.83;8.55;;;;;;;11.02;76.39;102491.91;5073733;27;98039;-74
2023/12/18 03:15:03;;;;;;;15.30;7.93;;;;;;;10.99;76.05;102494.56;5075230;27;97501;-75
2023/12/18 03:17:29;;;;;;;15.95;8.95;;;;;;;11.07;76.43;102492.75;5078917;27;97536;-75
2023/12/18 03:19:57;;;;;;;13.57;8.38;;;;;;;10.62;78.23;102494.03;5082087;27;96855;-75
2023/12/18 03:22:23;;;;;;;15.80;8.13;;;;;;;10.82;77.25;102493.88;5087222;27;100756;-74
2023/12/18 03:24:49;;;;;;;16.75;8.35;;;;;;;10.72;77.55;102492.19;5075575;27;99506;-75
2023/12/18 03:27:16;;;;;;;16.73;8.40;;;;;;;10.86;77.23;102498.22;5075661;27;97164;-75
2023/12/18 03:29:42;;;;;;;23.50;9.18;;;;;;;11.20;75.58;102488.19;5079823;27;100907;-74
2023/12/18 03:32:10;;;;;;;18.10;8.63;;;;;;;10.72;77.52;102487.75;5072825;27;98948;-74
2023/12/18 03:34:36;;;;;;;14.35;8.80;;;;;;;10.74;77.63;102495.69;5073720;27;98001;-74
2023/12/18 03:37:03;;;;;;;16.30;8.18;;;;;;;11.13;75.96;102491.81;5083556;27;96769;-75
2023/12/18 03:39:29;;;;;;;14.32;8.95;;;;;;;10.65;77.87;102491.34;5087537;27;96991;-74
2023/12/18 03:41:57;;;;;;;15.13;8.20;;;;;;;10.80;77.84;102493.00;5082674;27;102447;-75
2023/12/18 03:44:23;;;;;;;14.85;9.20;;;;;;;10.76;77.45;102494.78;5087831;27;101413;-74
2023/12/18 03:46:49;;;;;;;18.13;9.20;;;;;;;10.71;77.54;102488.66;5084922;27;97876;-75
2023/12/18 03:49:17;;;;;;;18.70;9.07;;;;;;;11.05;75.52;102488.34;5072019;27;97573;-75
2023/12/18 03:51:44;;;;;;;16.15;9.40;;;;;;;10.68;77.07;102485.16;5088170;27;99099;-74
2023/12/18 03:54:10;;;;;;;19.38;9.63;;;;;;;10.45;77.99;102487.97;5080588;27;97579;-75
2023/12/18 03:56:36;;;;;;;17.55;9.30;;;;;;;10.47;78.61;102490.63;5078050;27;96945;-75
2023/12/18 03:59:03;;;;;;;15.63;9.13;;;;;;;10.64;77.55;102494.88;5084123;27;97008;-74
2023/12/18 04:01:33;;;;;;;15.48;9.23;;;;;;;10.72;76.98;102493.06;5077888;27;97737;-75
2023/12/18 04:03:59;;;;;;;15.63;9.20;;;;;;;10.74;77.22;102493.06;5070988;27;99872;-76
2023/12/18 04:06:27;;;;;;;16.17;9.40;;;;;;;10.96;76.28;102486.66;5078029;27;97186;-75
2023/12/18 04:08:53;;;;;;;15.98;9.52;;;;;;;10.47;77.98;102493.25;5077901;27;97702;-75
2023/12/18 04:11:21;;;;;;;14.77;9.02;;;;;;;10.67;77.12;102489.56;5076874;27;99440;-75
2023/12/18 04:13:47;;;;;;;19.90;9.70;;;;;;;10.97;76.01;102495.47;5078589;27;98819;-74
2023/12/18 04:16:14;;;;;;;16.88;9.63;;;;;;;10.65;77.06;102496.63;5081875;27;97284;-75
2023/12/18 04:18:40;;;;;;;17.35;10.23;;;;;;;11.08;74.98;102501.56;5087593;27;96944;-74
2023/12/18 04:21:07;;;;;;;16.35;9.63;;;;;;;11.10;75.25;102497.09;5079090;27;98029;-74
2023/12/18 04:23:35;;;;;;;13.82;9.10;;;;;;;11.25;73.98;102481.09;5078898;27;99170;-74
2023/12/18 04:26:01;;;;;;;13.90;8.65;;;;;;;11.42;73.41;102480.91;5077191;27;97425;-74
2023/12/18 04:28:27;;;;;;;18.25;9.85;;;;;;;11.19;74.28;102478.50;5086031;27;96817;-75
2023/12/18 04:30:54;;;;;;;18.17;9.27;;;;;;;11.05;74.90;102475.13;5078322;27;99006;-74
2023/12/18 04:33:20;;;;;;;16.30;8.75;;;;;;;11.26;74.13;102471.38;5081512;27;99017;-74
2023/12/18 04:35:46;;;;;;;19.45;10.15;;;;;;;11.34;73.75;102473.06;5082709;27;97280;-73
2023/12/18 04:38:13;;;;;;;16.52;9.85;;;;;;;11.47;73.07;102471.13;5083805;27;96957;-74
2023/12/18 04:40:41;;;;;;;17.13;9.65;;;;;;;11.18;74.01;102474.09;5077931;27;98932;-73
2023/12/18 04:43:07;;;;;;;15.43;10.10;;;;;;;11.32;73.31;102466.88;5081507;27;99121;-73
2023/12/18 04:45:34;;;;;;;19.20;10.02;;;;;;;11.31;73.54;102477.47;5083874;27;96810;-74
2023/12/18 04:48:00;;;;;;;18.70;9.57;;;;;;;11.27;73.47;102476.66;5088889;27;96847;-74
2023/12/18 04:50:27;;;;;;;15.90;9.90;;;;;;;11.24;73.90;102467.84;5085004;27;99375;-74
2023/12/18 04:52:53;;;;;;;14.77;9.15;;;;;;;10.90;74.70;102467.31;5076465;27;98998;-74
2023/12/18 04:55:20;;;;;;;17.52;10.73;;;;;;;11.17;73.82;102467.03;5086419;27;97268;-74
2023/12/18 04:57:48;;;;;;;17.92;10.02;;;;;;;11.31;72.80;102457.19;5084795;27;97071;-75
2023/12/18 05:00:14;;;;;;;19.17;10.73;;;;;;;11.34;72.62;102459.81;5082029;27;99228;-74
2023/12/18 05:02:41;;;;;;;17.40;10.38;;;;;;;10.94;73.77;102462.00;5087699;27;98893;-74
2023/12/18 05:05:08;;;;;;;22.40;11.10;;;;;;;10.71;75.36;102450.75;5076946;27;97317;-74
2023/12/18 05:07:34;;;;;;;19.17;10.43;;;;;;;10.98;73.80;102454.91;5084252;27;100906;-73
2023/12/18 05:10:01;;;;;;;21.55;11.35;;;;;;;11.03;73.91;102456.59;5077400;27;98927;-73
2023/12/18 05:12:27;;;;;;;17.35;10.75;;;;;;;11.03;73.83;102461.03;5083001;27;98817;-74
2023/12/18 05:14:54;;;;;;;19.50;10.25;;;;;;;10.95;74.11;102452.31;5082394;27;96772;-74
2023/12/18 05:17:21;;;;;;;24.45;10.55;;;;;;;11.11;73.80;102454.78;5087949;27;98453;-74
2023/12/18 05:19:47;;;;;;;22.25;10.52;;;;;;;11.22;73.38;102461.72;5079089;27;99189;-74
2023/12/18 05:22:14;;;;;;;19.52;10.32;;;;;;;10.93;74.53;102456.72;5082002;27;98927;-74
2023/12/18 05:24:40;;;;;;;20.35;10.38;;;;;;;10.86;75.04;102461.19;5083600;27;97132;-74
2023/12/18 05:27:06;;;;;;;17.70;10.60;;;;;;;11.23;73.68;102472.28;5080259;27;97480;-74
2023/12/18 05:29:33;;;;;;;18.88;10.65;;;;;;;11.36;72.30;102460.66;5080130;27;98994;-73
2023/12/18 05:32:00;;;;;;;20.20;10.45;;;;;;;11.01;72.59;102478.69;5085061;27;98998;-75
2023/12/18 05:34:27;;;;;;;19.70;10.15;;;;;;;10.71;74.87;102486.00;5086842;27;96697;-75
2023/12/18 05:36:54;;;;;;;20.65;10.52;;;;;;;10.77;73.47;102485.94;5070538;27;96946;-73
2023/12/18 05:39:20;;;;;;;17.02;10.10;;;;;;;10.61;73.65;102492.28;5081349;27;98938;-73
2023/12/18 05:41:47;;;;;;;20.98;9.98;;;;;;;10.87;73.14;102491.16;5077637;27;101476;-73
2023/12/18 05:44:13;;;;;;;24.10;9.45;;;;;;;10.96;71.95;102512.25;5084465;27;97142;-74
2023/12/18 05:46:39;;;;;;;18.60;10.30;;;;;;;11.26;70.95;102506.66;5082234;27;96780;-74
2023/12/18 05:49:07;;;;;;;20.73;10.07;;;;;;;10.98;71.11;102511.34;5079254;27;101929;-74
2023/12/18 05:51:34;;;;;;;17.05;9.65;;;;;;;10.99;71.72;102517.50;5077933;27;99236;-74
2023/12/18 05:54:00;;;;;;;16.30;10.25;;;;;;;10.94;71.72;102519.31;5080942;27;96945;-74
2023/12/18 05:56:27;;;;;;;15.48;10.15;;;;;;;11.14;71.40;102514.72;5072826;27;96856;-75
2023/12/18 05:58:53;;;;;;;18.10;10.80;;;;;;;10.86;71.74;102515.84;5083670;27;98965;-75
2023/12/18 06:01:20;;;;;;;16.50;10.20;;;;;;;11.11;71.47;102518.25;5086630;27;98537;-74
2023/12/18 06:03:46;;;;;;;17.75;10.63;;;;;;;11.48;69.57;102512.59;5085423;27;96583;-75
2023/12/18 06:06:14;;;;;;;22.08;10.63;;;;;;;11.36;69.46;102513.59;5081290;27;96660;-75
2023/12/18 06:08:41;;;;;;;18.75;10.15;;;;;;;11.13;70.34;102508.56;5070927;27;99643;-75
2023/12/18 06:11:07;;;;;;;20.55;10.77;;;;;;;11.07;70.65;102511.25;5081292;27;101665;-76
2023/12/18 06:13:33;;;;;;;16.92;10.38;;;;;;;10.78;71.99;102513.28;5079100;27;97931;-75
2023/12/18 06:16:00;;;;;;;20.38;10.60;;;;;;;10.96;71.52;102506.97;5082636;27;97390;-75
2023/12/18 06:18:26;;;;;;;20.38;9.40;;;;;;;10.91;71.24;102514.91;5078600;27;98929;-75
2023/12/18 06:20:53;;;;;;;20.98;9.85;;;;;;;11.21;70.63;102510.25;5085006;27;99019;-75
2023/12/18 06:23:20;;;;;;;18.60;10.20;;;;;;;11.22;69.57;102526.13;5078339;27;96983;-73
2023/12/18 06:25:47;;;;;;;19.88;10.00;;;;;;;10.86;71.38;102524.69;5083888;27;97671;-74
2023/12/18 06:28:13;;;;;;;16.80;10.00;;;;;;;10.79;71.28;102521.19;5087036;27;97884;-74
2023/12/18 06:30:39;;;;;;;20.35;10.43;;;;;;;11.01;71.22;102528.97;5078390;27;101366;-73
2023/12/18 06:33:06;;;;;;;14.60;9.40;;;;;;;11.12;70.73;102527.97;5086304;27;96786;-74
2023/12/18 06:35:33;;;;;;;15.38;9.45;;;;;;;11.15;70.45;102527.06;5082522;27;96993;-74
2023/12/18 06:37:59;;;;;;;18.88;9.80;;;;;;;11.31;69.91;102520.72;5072649;27;98856;-74
2023/12/18 06:40:27;;;;;;;18.33;10.18;;;;;;;11.08;70.59;102528.00;5084027;27;98703;-74
2023/12/18 06:42:53;;;;;;;17.65;9.57;;;;;;;11.08;70.68;102515.66;5077833;27;96953;-74
2023/12/18 06:45:20;;;;;;;20.92;10.48;;;;;;;10.98;71.23;102510.44;5071909;27;97834;-74
2023/12/18 06:47:46;;;;;;;24.83;10.15;;;;;;;11.13;70.77;102515.59;5072315;27;99260;-74
2023/12/18 06:50:12;;;;;;;24.85;10.63;;;;;;;11.25;70.37;102512.84;5082200;27;98757;-74
2023/12/18 06:52:39;;;;;;;20.17;10.30;;;;;;;11.20;70.07;102517.31;5076194;27;96796;-74
2023/12/18 06:55:05;;;;;;;19.42;10.63;;;;;;;11.21;70.06;102519.06;5075754;27;96898;-74
2023/12/18 06:57:34;;;;;;;20.33;11.40;;;;;;;11.28;70.15;102525.16;5083126;27;99030;-74
2023/12/18 07:00:00;;;;;;;24.33;11.40;;;;;;;11.39;69.32;102525.94;5075603;27;98721;-74
2023/12/18 07:02:27;;;;;;;18.08;9.93;;;;;;;10.66;71.85;102527.47;5083093;27;97224;-75
2023/12/18 07:04:53;;;;;;;19.00;10.43;;;;;;;10.86;71.85;102531.72;5081852;27;96823;-74
2023/12/18 07:07:20;;;;;;;23.63;10.45;;;;;;;10.90;71.75;102536.09;5079146;27;98073;-74
2023/12/18 07:09:46;;;;;;;22.23;10.70;;;;;;;10.90;71.82;102544.03;5079332;27;97477;-73
2023/12/18 07:12:12;;;;;;;20.15;10.43;;;;;;;11.14;70.77;102550.00;5082219;27;97110;-74
2023/12/18 07:14:43;;;;;;;20.25;10.52;;;;;;;11.06;70.53;102553.59;5083499;27;96959;-76
2023/12/18 07:17:10;;;;;;;19.38;10.57;;;;;;;11.25;69.85;102541.94;5078300;27;98133;-74
2023/12/18 07:19:38;;;;;;;16.77;10.05;;;;;;;11.11;70.40;102549.13;5078657;27;101137;-76
2023/12/18 07:22:05;;;;;;;18.35;11.48;;;;;;;11.29;69.18;102543.66;5089466;27;97193;-75
2023/12/18 07:24:31;;;;;;;19.67;10.27;;;;;;;11.33;69.22;102542.75;5084820;27;96973;-76
2023/12/18 07:26:58;;;;;;;19.98;12.05;;;;;;;11.04;69.99;102542.13;5078641;27;97608;-75
2023/12/18 07:29:24;;;;;;;21.10;10.23;;;;;;;10.89;70.93;102542.28;5081511;27;101902;-75
2023/12/18 07:31:51;;;;;;;20.20;10.07;;;;;;;11.03;70.93;102545.66;5087060;27;96769;-73
2023/12/18 07:34:17;;;;;;;18.15;9.55;;;;;;;11.19;69.66;102555.25;5080758;27;98930;-74
2023/12/18 07:36:44;;;;;;;15.50;10.35;;;;;;;11.17;69.35;102549.06;5080213;27;99007;-74
2023/12/18 07:39:10;;;;;;;20.50;9.60;;;;;;;10.97;70.74;102551.91;5085679;27;99538;-74
2023/12/18 07:41:37;;;;;;;19.73;9.90;;;;;;;11.04;70.38;102547.44;5080256;27;97129;-75
2023/12/18 07:44:03;;;;;;;15.48;9.95;;;;;;;11.07;70.39;102547.41;5082634;27;98673;-75
2023/12/18 07:46:30;;;;;;;16.95;9.82;;;;;;;10.85;71.03;102552.00;5083529;27;98954;-75
2023/12/18 07:48:57;;;;;;;18.52;9.65;;;;;;;10.88;70.88;102548.47;5078687;27;98890;-75
2023/12/18 07:51:24;;;;;;;17.10;9.50;;;;;;;10.35;73.18;102555.00;5079942;27;96685;-75
2023/12/18 07:53:50;;;;;;;18.65;9.57;;;;;;;10.79;71.82;102550.28;5077823;27;97201;-75
2023/12/18 07:56:16;;;;;;;19.92;10.13;;;;;;;10.92;71.24;102548.41;5077344;27;97636;-75
2023/12/18 07:58:43;;;;;;;15.55;9.15;;;;;;;10.76;72.09;102550.28;5077237;27;98882;-75
2023/12/18 08:01:09;;;;;;;18.27;9.02;;;;;;;10.64;72.47;102552.16;5085832;27;97413;-75
2023/12/18 08:03:36;;;;;;;17.67;9.32;;;;;;;10.66;72.50;102543.34;5087505;27;96991;-75
2023/12/18 08:06:03;;;;;;;17.10;9.43;;;;;;;11.04;71.07;102548.31;5077961;27;99060;-74
2023/12/18 08:08:29;;;;;;;25.60;10.10;;;;;;;10.98;70.68;102543.06;5079699;27;99000;-74
2023/12/18 08:10:56;;;;;;;18.05;9.82;;;;;;;10.90;70.63;102534.31;5078342;27;96858;-74
2023/12/18 08:13:23;;;;;;;18.58;9.73;;;;;;;10.90;71.61;102538.72;5080648;27;97101;-74
2023/12/18 08:15:49;;;;;;;16.58;8.40;;;;;;;11.20;69.61;102530.53;5076118;27;101045;-74
2023/12/18 08:18:16;;;;;;;18.75;9.90;;;;;;;10.83;71.80;102542.34;5079917;27;97578;-75
2023/12/18 08:20:43;;;;;;;14.88;8.45;;;;;;;10.98;71.16;102536.91;5090137;27;97122;-73
2023/12/18 08:23:11;;;;;;;16.70;8.52;;;;;;;10.71;71.65;102545.94;5083589;27;98075;-73
2023/12/18 08:25:37;;;;;;;13.18;8.27;;;;;;;10.22;74.58;102548.03;5080044;27;98956;-72
2023/12/18 08:28:04;;;;;;;14.00;8.57;;;;;;;9.49;77.77;102551.81;5077320;27;99094;-73
2023/12/18 08:30:31;;;;;;;17.98;8.23;;;;;;;9.80;77.68;102555.22;5082552;27;97196;-73
2023/12/18 08:32:57;;;;;;;16.75;8.80;;;;;;;10.21;75.60;102552.44;5085289;27;96771;-74
2023/12/18 08:35:23;;;;;;;15.70;8.02;;;;;;;10.43;74.03;102554.97;5084975;27;98903;-73
2023/12/18 08:37:50;;;;;;;14.98;7.85;;;;;;;10.26;74.87;102540.06;5086245;27;99267;-74
2023/12/18 08:40:17;;;;;;;20.58;8.30;;;;;;;10.30;74.44;102543.59;5077822;27;97213;-76
2023/12/18 08:42:44;;;;;;;17.13;7.88;;;;;;;10.23;75.04;102545.41;5085517;27;97025;-71
2023/12/18 08:45:10;;;;;;;17.40;8.98;;;;;;;10.27;75.47;102530.38;5075023;27;99716;-74
2023/12/18 08:47:37;;;;;;;15.27;7.45;;;;;;;10.44;74.23;102531.16;5085508;27;98852;-75
2023/12/18 08:50:03;;;;;;;13.45;7.40;;;;;;;9.90;76.64;102527.03;5080180;27;97151;-75
2023/12/18 08:52:30;;;;;;;15.27;8.40;;;;;;;9.94;77.01;102528.78;5077049;27;97659;-75
2023/12/18 08:54:56;;;;;;;14.52;7.97;;;;;;;9.62;78.68;102526.25;5064641;27;98889;-76
2023/12/18 08:57:24;;;;;;;14.50;8.50;;;;;;;9.44;80.14;102524.56;5071776;27;99315;-75
2023/12/18 08:59:51;;;;;;;16.50;8.55;;;;;;;9.95;77.87;102526.13;5076970;27;97510;-75
2023/12/18 09:02:18;;;;;;;21.35;8.82;;;;;;;9.92;78.28;102523.50;5071107;27;98880;-75
2023/12/18 09:04:44;;;;;;;17.30;8.30;;;;;;;10.31;76.60;102524.19;5077203;27;98983;-74
2023/12/18 09:07:11;;;;;;;14.32;7.97;;;;;;;10.16;76.17;102537.47;5082870;27;99156;-74
2023/12/18 09:09:40;;;;;;;15.75;7.53;;;;;;;9.49;79.80;102548.28;5082622;27;97929;-74
2023/12/18 09:12:07;;;;;;;16.83;8.98;;;;;;;9.93;78.59;102542.84;5080845;27;97644;-74
2023/12/18 09:14:35;;;;;;;15.07;8.30;;;;;;;10.24;77.30;102536.56;5079048;27;98819;-76
2023/12/18 09:17:01;;;;;;;16.60;8.52;;;;;;;10.24;76.28;102535.72;5080982;27;98830;-74
2023/12/18 09:19:29;;;;;;;12.65;7.90;;;;;;;10.07;77.19;102538.41;5079651;27;98394;-75
2023/12/18 09:21:55;;;;;;;20.02;8.70;;;;;;;10.48;75.93;102534.66;5074235;27;98412;-74
2023/12/18 09:24:22;;;;;;;14.32;8.35;;;;;;;10.17;75.98;102536.63;5074732;27;99072;-74
2023/12/18 09:26:48;;;;;;;12.77;5.80;;;;;;;9.23;80.36;102534.28;5084279;27;99262;-75
2023/12/18 09:29:15;;;;;;;19.55;8.40;;;;;;;9.62;79.90;102520.09;5080027;27;98101;-74
2023/12/18 09:31:42;;;;;;;13.43;8.32;;;;;;;10.27;77.12;102515.41;5088824;27;97539;-74
2023/12/18 09:34:08;;;;;;;16.25;9.00;;;;;;;10.57;75.25;102519.59;5079876;27;100106;-74
2023/12/18 09:36:36;;;;;;;20.48;8.07;;;;;;;10.52;74.67;102523.19;5084127;27;99064;-75
2023/12/18 09:39:03;;;;;;;15.38;8.50;;;;;;;10.40;75.59;102526.78;5083902;27;99384;-75
2023/12/18 09:41:29;;;;;;;17.95;8.60;;;;;;;9.96;77.67;102519.97;5088575;27;97683;-75
2023/12/18 09:43:56;;;;;;;16.23;8.88;;;;;;;9.86;78.71;102526.16;5076837;27;98998;-76
2023/12/18 09:46:23;;;;;;;16.70;8.48;;;;;;;9.79;78.38;102526.19;5077844;27;98882;-76
2023/12/18 09:48:51;;;;;;;18.30;8.85;;;;;;;10.21;77.51;102525.16;5082853;27;97195;-76
2023/12/18 09:51:20;;;;;;;15.25;8.63;;;;;;;10.28;76.30;102526.88;5084892;27;97177;-75
2023/12/18 09:53:48;;;;;;;16.52;8.00;;;;;;;10.36;75.67;102525.94;5077343;27;99052;-75
2023/12/18 09:56:15;;;;;;;19.55;8.90;;;;;;;10.26;76.15;102516.31;5082391;27;97524;-75
2023/12/18 09:58:43;;;;;;;14.23;8.65;;;;;;;9.70;78.07;102503.38;5081100;27;97382;-75
2023/12/18 10:01:10;;;;;;;14.75;8.85;;;;;;;10.26;77.02;102504.84;5081557;27;96978;-75
2023/12/18 10:03:37;;;;;;;15.63;8.52;;;;;;;10.25;76.13;102505.72;5083175;27;98939;-76
2023/12/18 10:06:05;;;;;;;19.45;8.75;;;;;;;10.50;75.38;102512.59;5078354;27;98207;-76
2023/12/18 10:08:31;;;;;;;14.35;8.40;;;;;;;10.54;74.99;102524.94;5078114;27;97219;-76
2023/12/18 10:10:58;;;;;;;17.17;9.23;;;;;;;9.99;77.38;102521.69;5080565;27;96808;-76
2023/12/18 10:13:25;;;;;;;13.98;8.32;;;;;;;10.17;77.00;102519.03;5084545;27;99613;-76
2023/12/18 10:15:53;;;;;;;16.27;8.77;;;;;;;10.26;76.35;102521.59;5080418;27;101541;-76
2023/12/18 10:18:22;;;;;;;20.83;9.40;;;;;;;10.71;76.03;102516.84;5072383;27;97408;-77
2023/12/18 10:20:49;;;;;;;16.50;9.18;;;;;;;10.69;74.99;102508.97;5078119;27;96828;-76
2023/12/18 10:23:17;;;;;;;16.63;8.65;;;;;;;10.86;74.03;102511.44;5078391;27;98938;-76
2023/12/18 10:25:44;;;;;;;18.65;8.50;;;;;;;10.85;73.88;102511.44;5080359;27;98825;-75
2023/12/18 10:28:10;;;;;;;15.23;8.45;;;;;;;11.23;72.22;102511.09;5079384;27;97692;-75
2023/12/18 10:30:37;;;;;;;15.85;8.23;;;;;;;11.16;71.23;102513.78;5081748;27;98519;-75
2023/12/18 10:33:05;;;;;;;18.00;8.20;;;;;;;11.39;71.82;102505.63;5076355;27;99500;-75
2023/12/18 10:35:32;;;;;;;15.25;8.50;;;;;;;11.61;70.44;102500.09;5086313;27;98780;-75
2023/12/18 10:38:01;;;;;;;18.70;9.18;;;;;;;11.63;69.86;102495.63;5089253;27;97135;-75
2023/12/18 10:40:29;;;;;;;17.48;9.07;;;;;;;11.31;70.46;102488.94;5083181;27;100341;-75
2023/12/18 10:43:06;;;;;;;26.73;10.60;;;;;;;11.12;71.93;102482.09;5084927;27;101110;-75
2023/12/18 10:45:34;;;;;;;19.25;9.07;;;;;;;10.94;72.38;102493.75;5082324;27;98811;-74
2023/12/18 10:48:02;;;;;;;15.88;9.15;;;;;;;10.15;76.49;102493.44;5080473;27;97080;-76
2023/12/18 10:50:31;;;;;;;16.45;9.18;;;;;;;11.00;72.99;102483.09;5084380;27;98715;-75
2023/12/18 10:52:59;;;;;;;19.23;9.77;;;;;;;11.37;71.03;102488.00;5079247;27;99007;-76
2023/12/18 10:55:27;;;;;;;21.67;9.50;;;;;;;11.75;68.90;102471.72;5077485;27;99410;-76
2023/12/18 10:57:58;;;;;;;20.27;9.43;;;;;;;11.25;70.11;102470.50;5084350;27;96755;-75
2023/12/18 11:00:25;;;;;;;29.58;8.35;;;;;;;9.83;76.47;102470.75;5084287;27;97159;-75
2023/12/18 11:02:52;;;;;;;24.80;9.98;;;;;;;10.25;75.52;102481.97;5083490;27;97857;-74
2023/12/18 11:05:21;;;;;;;16.35;8.82;;;;;;;10.39;75.05;102488.91;5080965;27;101701;-74
2023/12/18 11:07:48;;;;;;;21.23;9.32;;;;;;;10.82;72.18;102488.59;5082494;27;97544;-75
2023/12/18 11:10:15;;;;;;;14.57;8.35;;;;;;;10.81;72.61;102488.59;5087699;27;97974;-75
2023/12/18 11:12:43;;;;;;;21.65;10.55;;;;;;;10.82;72.67;102493.88;5089760;27;101618;-75
2023/12/18 11:15:22;;;;;;;34.72;11.00;;;;;;;10.55;73.55;102494.09;5087273;27;99024;-76